createdAt,value
2022-07-28T00:04:43.862Z,38.59
2022-07-28T00:09:45.619Z,38.54
2022-07-28T00:14:47.411Z,38.72
2022-07-28T00:19:49.311Z,38.42
2022-07-28T00:24:51.016Z,38.38
2022-07-28T00:29:52.666Z,38.54
2022-07-28T00:34:54.317Z,38.50
2022-07-28T00:39:56.120Z,38.63
2022-07-28T00:44:57.775Z,38.42
2022-07-28T00:49:59.545Z,38.42
2022-07-28T00:55:04.485Z,38.58
2022-07-28T01:00:06.877Z,38.87
2022-07-28T01:05:09.489Z,38.81
2022-07-28T01:10:24.448Z,38.51
2022-07-28T01:15:33.511Z,38.79
2022-07-28T01:20:49.242Z,38.57
2022-07-28T01:26:28.534Z,38.81
2022-07-28T01:31:40.993Z,38.95
2022-07-28T01:36:51.364Z,38.89
2022-07-28T01:41:56.148Z,39.10
2022-07-28T01:47:00.566Z,38.91
2022-07-28T01:52:06.679Z,39.21
2022-07-28T01:57:14.476Z,39.25
2022-07-28T02:02:18.842Z,39.23
2022-07-28T02:07:21.218Z,39.17
2022-07-28T02:12:24.327Z,39.01
2022-07-28T02:17:30.918Z,39.23
2022-07-28T02:22:33.743Z,39.31
2022-07-28T02:27:47.324Z,39.25
2022-07-28T02:32:53.877Z,39.58
2022-07-28T02:38:07.557Z,39.17
2022-07-28T02:43:15.717Z,39.19
2022-07-28T02:48:21.449Z,39.58
2022-07-28T02:53:24.605Z,39.43
2022-07-28T02:58:28.051Z,39.48
2022-07-28T03:03:30.947Z,39.90
2022-07-28T03:08:32.739Z,39.83
2022-07-28T03:13:34.563Z,39.88
2022-07-28T03:18:36.255Z,39.69
2022-07-28T03:23:45.434Z,39.79
2022-07-28T03:28:48.885Z,39.95
2022-07-28T03:33:50.686Z,39.93
2022-07-28T03:39:00.716Z,39.96
2022-07-28T03:44:03.067Z,39.78
2022-07-28T03:49:08.477Z,40.05
2022-07-28T03:54:10.501Z,39.76
2022-07-28T03:59:12.360Z,40.02
2022-07-28T04:04:14.253Z,40.12
2022-07-28T04:09:16.344Z,39.95
2022-07-28T04:14:18.625Z,40.08
2022-07-28T04:19:20.582Z,40.41
2022-07-28T04:24:22.371Z,40.25
2022-07-28T04:29:27.447Z,40.34
2022-07-28T04:34:29.369Z,40.25
2022-07-28T04:39:31.557Z,40.25
2022-07-28T04:44:33.715Z,40.22
2022-07-28T04:49:35.565Z,40.12
2022-07-28T04:54:38.259Z,40.28
2022-07-28T04:59:40.113Z,40.37
2022-07-28T05:04:41.804Z,40.11
2022-07-28T05:09:43.826Z,40.25
2022-07-28T05:14:45.383Z,40.33
2022-07-28T05:19:47.040Z,39.98
2022-07-28T05:24:48.619Z,39.88
2022-07-28T05:29:51.750Z,40.16
2022-07-28T05:34:53.523Z,40.15
2022-07-28T05:39:55.248Z,39.98
2022-07-28T05:44:57.072Z,40.11
2022-07-28T05:50:02.229Z,39.90
2022-07-28T05:55:05.249Z,39.88
2022-07-28T06:00:19.674Z,39.76
2022-07-28T06:05:23.733Z,39.45
2022-07-28T06:10:48.513Z,39.72
2022-07-28T06:15:52.774Z,39.53
2022-07-28T06:20:54.436Z,39.70
2022-07-28T06:25:56.157Z,39.89
2022-07-28T06:30:57.890Z,39.40
2022-07-28T06:35:59.471Z,39.57
2022-07-28T06:41:01.779Z,39.57
2022-07-28T06:46:03.847Z,39.21
2022-07-28T06:51:05.953Z,39.39
2022-07-28T06:56:08.578Z,39.10
2022-07-28T07:01:16.472Z,39.27
2022-07-28T07:06:18.698Z,39.25
2022-07-28T07:11:24.913Z,39.00
2022-07-28T07:21:43.161Z,39.04
2022-07-28T07:26:44.804Z,38.84
2022-07-28T07:31:46.604Z,38.88
2022-07-28T07:36:54.425Z,38.62
2022-07-28T07:41:56.289Z,38.61
2022-07-28T07:46:58.706Z,38.51
2022-07-28T07:52:04.094Z,38.22
2022-07-28T07:57:06.034Z,38.29
2022-07-28T08:02:07.915Z,38.05
2022-07-28T08:07:10.102Z,37.81
2022-07-28T08:12:11.918Z,37.51
2022-07-28T08:17:13.601Z,37.81
2022-07-28T08:22:18.545Z,37.86
2022-07-28T08:27:20.658Z,37.63
2022-07-28T08:32:22.371Z,37.43
2022-07-28T08:37:27.119Z,37.29
2022-07-28T08:42:43.693Z,37.27
2022-07-28T08:48:07.190Z,36.50
2022-07-28T08:53:09.420Z,36.82
2022-07-28T08:58:13.244Z,36.29
2022-07-28T09:03:16.917Z,36.54
2022-07-28T09:08:19.669Z,36.14
2022-07-28T09:13:21.467Z,36.02
2022-07-28T09:18:23.159Z,35.52
2022-07-28T09:23:42.678Z,35.44
2022-07-28T09:29:02.494Z,35.17
2022-07-28T09:34:05.576Z,35.31
2022-07-28T09:39:08.291Z,34.81
2022-07-28T09:44:21.449Z,34.81
2022-07-28T09:49:44.743Z,34.79
2022-07-28T09:55:09.970Z,34.20
2022-07-28T10:00:24.354Z,34.35
2022-07-28T10:05:39.736Z,33.94
2022-07-28T10:10:41.597Z,33.98
2022-07-28T10:16:01.634Z,33.44
2022-07-28T10:21:09.882Z,33.20
2022-07-28T10:26:13.041Z,32.75
2022-07-28T10:31:22.501Z,32.49
2022-07-28T10:36:25.808Z,32.50
2022-07-28T10:41:32.915Z,32.36
2022-07-28T10:46:35.171Z,32.06
2022-07-28T10:51:59.863Z,31.71
2022-07-28T10:57:05.200Z,31.76
2022-07-28T11:02:08.601Z,31.49
2022-07-28T11:07:15.649Z,31.42
2022-07-28T11:12:48.218Z,31.07
2022-07-28T11:18:06.552Z,30.98
2022-07-28T11:23:39.465Z,30.57
2022-07-28T11:29:03.880Z,30.41
2022-07-28T11:34:07.050Z,29.53
2022-07-28T11:39:25.547Z,29.80
2022-07-28T11:44:31.003Z,29.69
2022-07-28T11:49:33.344Z,28.34
2022-07-28T11:54:36.677Z,28.82
2022-07-28T11:59:58.293Z,28.98
2022-07-28T12:05:08.540Z,27.99
2022-07-28T12:15:53.023Z,26.99
2022-07-28T12:20:55.497Z,27.54
2022-07-28T12:25:57.705Z,27.10
2022-07-28T12:31:15.694Z,27.46
2022-07-28T12:36:19.453Z,26.41
2022-07-28T12:41:22.472Z,25.52
2022-07-28T12:46:28.955Z,26.10
2022-07-28T12:51:43.029Z,26.12
2022-07-28T12:56:52.435Z,26.05
2022-07-28T13:01:56.118Z,25.48
2022-07-28T13:06:57.752Z,25.72
2022-07-28T13:12:00.509Z,25.86
2022-07-28T13:17:02.236Z,25.38
2022-07-28T13:22:08.813Z,24.96
2022-07-28T13:27:11.062Z,25.44
2022-07-28T13:32:12.826Z,25.32
2022-07-28T13:37:15.365Z,24.89
2022-07-28T13:42:18.581Z,24.78
2022-07-28T13:47:20.252Z,24.15
2022-07-28T13:52:32.732Z,24.18
2022-07-28T13:57:36.978Z,23.36
2022-07-28T14:02:38.932Z,23.48
2022-07-28T14:07:48.813Z,22.94
2022-07-28T14:12:51.025Z,22.25
2022-07-28T14:17:53.441Z,23.33
2022-07-28T14:22:55.171Z,23.60
2022-07-28T14:27:57.572Z,23.64
2022-07-28T14:32:59.262Z,23.15
2022-07-28T14:38:50.236Z,23.13
2022-07-28T14:43:22.827Z,22.50
2022-07-28T14:48:24.518Z,22.73
2022-07-28T14:53:27.665Z,22.48
2022-07-28T14:58:29.920Z,22.12
2022-07-28T15:03:36.374Z,21.07
2022-07-28T15:08:38.385Z,21.93
2022-07-28T15:13:39.996Z,22.51
2022-07-28T15:18:41.765Z,21.68
2022-07-28T15:23:44.112Z,21.40
2022-07-28T15:28:48.483Z,21.17
2022-07-28T15:33:54.045Z,21.86
2022-07-28T15:38:59.733Z,22.13
2022-07-28T15:44:01.705Z,22.19
2022-07-28T15:49:09.424Z,22.31
2022-07-28T15:54:11.270Z,22.45
2022-07-28T15:59:13.127Z,21.67
2022-07-28T16:04:15.057Z,22.27
2022-07-28T16:09:17.277Z,21.28
2022-07-28T16:14:19.341Z,20.91
2022-07-28T16:19:46.634Z,21.37
2022-07-28T16:24:43.160Z,20.93
2022-07-28T16:29:44.895Z,20.88
2022-07-28T16:34:48.171Z,20.60
2022-07-28T16:39:49.891Z,20.86
2022-07-28T16:44:51.526Z,21.13
2022-07-28T16:49:53.499Z,21.23
2022-07-28T16:54:56.079Z,21.30
2022-07-28T16:59:57.741Z,21.41
2022-07-28T17:04:59.593Z,20.88
2022-07-28T17:10:01.552Z,21.37
2022-07-28T17:15:04.337Z,21.44
2022-07-28T17:20:07.128Z,21.64
2022-07-28T17:25:22.680Z,21.47
2022-07-28T17:30:33.183Z,21.43
2022-07-28T17:35:35.964Z,21.67
2022-07-28T17:40:40.004Z,21.50
2022-07-28T17:45:41.800Z,21.52
2022-07-28T17:50:44.337Z,21.63
2022-07-28T17:56:00.424Z,21.50
2022-07-28T18:01:09.290Z,21.31
2022-07-28T18:06:12.455Z,21.47
2022-07-28T18:11:14.078Z,21.53
2022-07-28T18:16:15.857Z,22.02
2022-07-28T18:21:17.504Z,22.10
2022-07-28T18:26:19.219Z,22.18
2022-07-28T18:31:21.782Z,22.13
2022-07-28T18:36:23.839Z,22.39
2022-07-28T18:41:25.464Z,22.54
2022-07-28T18:46:27.217Z,22.79
2022-07-28T18:51:29.181Z,23.46
2022-07-28T18:56:30.990Z,23.46
2022-07-28T19:01:33.089Z,23.72
2022-07-28T19:06:36.180Z,23.75
2022-07-28T19:11:41.202Z,24.29
2022-07-28T19:16:45.551Z,24.24
2022-07-28T19:21:47.311Z,24.28
2022-07-28T19:26:51.180Z,24.61
2022-07-28T19:31:52.989Z,24.75
2022-07-28T19:36:54.877Z,25.00
2022-07-28T19:41:56.457Z,25.29
2022-07-28T19:46:59.444Z,25.41
2022-07-28T19:52:01.277Z,25.69
2022-07-28T19:57:03.176Z,25.87
2022-07-28T20:02:14.340Z,26.09
2022-07-28T20:07:16.132Z,26.07
2022-07-28T20:12:18.032Z,26.40
2022-07-28T20:17:37.508Z,26.53
2022-07-28T20:22:41.623Z,26.86
2022-07-28T20:27:44.341Z,26.87
2022-07-28T20:32:46.729Z,26.95
2022-07-28T20:37:49.419Z,26.97
2022-07-28T20:42:53.516Z,27.39
2022-07-28T20:47:55.169Z,27.57
2022-07-28T20:52:56.767Z,27.62
2022-07-28T20:57:58.367Z,27.76
2022-07-28T21:03:00.218Z,27.79
2022-07-28T21:08:04.793Z,28.37
2022-07-28T21:13:08.406Z,28.21
2022-07-28T21:18:10.778Z,28.67
2022-07-28T21:23:12.497Z,28.67
2022-07-28T21:28:32.921Z,29.03
2022-07-28T21:33:34.615Z,28.95
2022-07-28T21:38:36.305Z,29.26
2022-07-28T21:43:38.187Z,29.58
2022-07-28T21:48:39.956Z,29.50
2022-07-28T21:53:44.920Z,29.45
2022-07-28T21:58:47.593Z,29.96
2022-07-28T22:03:50.261Z,29.90
2022-07-28T22:08:54.074Z,30.11
2022-07-28T22:13:55.859Z,30.12
2022-07-28T22:18:57.551Z,29.70
2022-07-28T22:23:59.362Z,30.33
2022-07-28T22:29:01.029Z,29.93
2022-07-28T22:34:02.784Z,30.22
2022-07-28T22:39:04.871Z,30.20
2022-07-28T22:44:09.504Z,30.41
2022-07-28T22:49:11.177Z,30.51
2022-07-28T22:54:13.404Z,30.12
2022-07-28T22:59:17.740Z,30.32
2022-07-28T23:04:19.881Z,30.44
2022-07-28T23:09:24.767Z,30.35
2022-07-28T23:14:26.415Z,30.12
2022-07-28T23:19:28.211Z,30.22
2022-07-28T23:24:30.362Z,30.46
2022-07-28T23:29:32.017Z,30.43
2022-07-28T23:34:33.672Z,30.47
2022-07-28T23:39:35.280Z,30.12
2022-07-28T23:44:36.877Z,30.53
2022-07-28T23:49:38.597Z,30.25
2022-07-28T23:54:40.193Z,30.57
2022-07-28T23:59:41.927Z,30.48
